createdAt,value
2022-08-19T00:01:53.797Z,19.04
2022-08-19T00:04:27.649Z,19.00
2022-08-19T00:06:54.494Z,19.00
2022-08-19T00:09:23.037Z,18.98
2022-08-19T00:11:50.661Z,18.99
2022-08-19T00:14:18.323Z,19.00
2022-08-19T00:16:47.874Z,18.98
2022-08-19T00:19:15.404Z,18.92
2022-08-19T00:21:42.421Z,18.88
2022-08-19T00:24:10.647Z,18.88
2022-08-19T00:26:38.413Z,18.84
2022-08-19T00:29:06.740Z,18.78
2022-08-19T00:31:33.478Z,18.74
2022-08-19T00:34:00.198Z,18.76
2022-08-19T00:36:26.795Z,18.76
2022-08-19T00:38:53.432Z,18.73
2022-08-19T00:41:22.270Z,18.69
2022-08-19T00:44:04.140Z,18.63
2022-08-19T00:46:31.458Z,18.58
2022-08-19T00:48:58.759Z,18.56
2022-08-19T00:51:31.106Z,18.53
2022-08-19T00:53:59.586Z,18.50
2022-08-19T00:56:27.981Z,18.52
2022-08-19T00:58:57.564Z,18.53
2022-08-19T01:01:24.278Z,18.57
2022-08-19T01:03:57.564Z,18.61
2022-08-19T01:06:25.332Z,18.59
2022-08-19T01:08:52.106Z,18.52
2022-08-19T01:11:18.761Z,18.46
2022-08-19T01:13:49.838Z,18.45
2022-08-19T01:16:18.785Z,18.42
2022-08-19T01:18:45.927Z,18.40
2022-08-19T01:21:38.777Z,18.33
2022-08-19T01:24:05.762Z,18.27
2022-08-19T01:26:32.327Z,18.22
2022-08-19T01:29:02.212Z,18.20
2022-08-19T01:31:32.592Z,18.18
2022-08-19T01:34:01.348Z,18.18
2022-08-19T01:36:48.369Z,18.15
2022-08-19T01:39:20.241Z,18.16
2022-08-19T01:41:47.969Z,18.16
2022-08-19T01:44:18.746Z,18.15
2022-08-19T01:46:48.470Z,18.11
2022-08-19T01:49:16.013Z,18.04
2022-08-19T01:51:42.585Z,17.96
2022-08-19T01:54:10.899Z,17.92
2022-08-19T01:56:37.444Z,17.88
2022-08-19T01:59:09.415Z,17.87
2022-08-19T02:01:36.429Z,17.84
2022-08-19T02:04:03.344Z,17.84
2022-08-19T02:06:30.317Z,17.81
2022-08-19T02:08:57.634Z,17.78
2022-08-19T02:11:32.422Z,17.81
2022-08-19T02:14:00.782Z,17.78
2022-08-19T02:16:27.311Z,17.75
2022-08-19T02:18:53.823Z,17.75
2022-08-19T02:21:22.745Z,17.74
2022-08-19T02:23:50.396Z,17.69
2022-08-19T02:26:18.032Z,17.69
2022-08-19T02:28:44.594Z,17.66
2022-08-19T02:31:13.609Z,17.63
2022-08-19T02:33:40.178Z,17.54
2022-08-19T02:36:08.256Z,17.51
2022-08-19T02:38:35.757Z,17.51
2022-08-19T02:41:05.402Z,17.51
2022-08-19T02:43:34.470Z,17.46
2022-08-19T02:46:01.713Z,17.43
2022-08-19T02:48:28.646Z,17.43
2022-08-19T02:50:57.779Z,17.43
2022-08-19T02:53:25.692Z,17.37
2022-08-19T02:55:52.829Z,17.36
2022-08-19T02:58:19.652Z,17.37
2022-08-19T03:00:50.229Z,17.37
2022-08-19T03:03:18.073Z,17.34
2022-08-19T03:05:48.220Z,17.31
2022-08-19T03:08:23.667Z,17.26
2022-08-19T03:10:50.164Z,17.30
2022-08-19T03:13:18.866Z,17.31
2022-08-19T03:15:47.488Z,17.28
2022-08-19T03:18:15.626Z,17.22
2022-08-19T03:20:50.596Z,17.15
2022-08-19T03:23:17.831Z,17.11
2022-08-19T03:26:03.934Z,17.11
2022-08-19T03:28:35.834Z,17.10
2022-08-19T03:31:42.037Z,17.11
2022-08-19T03:33:54.313Z,17.04
2022-08-19T03:36:25.949Z,17.03
2022-08-19T03:39:00.533Z,17.04
2022-08-19T03:41:44.578Z,17.03
2022-08-19T03:44:23.160Z,16.99
2022-08-19T03:46:54.926Z,17.02
2022-08-19T03:49:27.083Z,17.04
2022-08-19T03:51:58.127Z,17.09
2022-08-19T03:54:26.259Z,17.10
2022-08-19T03:56:55.351Z,17.09
2022-08-19T03:59:26.656Z,17.06
2022-08-19T04:01:55.357Z,17.10
2022-08-19T04:04:22.562Z,17.06
2022-08-19T04:06:49.361Z,17.04
2022-08-19T04:09:16.510Z,17.07
2022-08-19T04:11:47.864Z,17.05
2022-08-19T04:14:20.070Z,17.02
2022-08-19T04:16:48.426Z,17.04
2022-08-19T04:19:16.209Z,17.07
2022-08-19T04:21:45.010Z,17.05
2022-08-19T04:24:13.062Z,17.03
2022-08-19T04:26:40.153Z,17.05
2022-08-19T04:29:14.782Z,17.06
2022-08-19T04:31:42.903Z,17.10
2022-08-19T04:34:11.987Z,17.15
2022-08-19T04:36:40.657Z,17.14
2022-08-19T04:39:10.878Z,17.15
2022-08-19T04:41:57.142Z,17.17
2022-08-19T04:44:24.080Z,17.21
2022-08-19T04:46:51.973Z,17.23
2022-08-19T04:49:22.791Z,17.29
2022-08-19T04:51:51.480Z,17.32
2022-08-19T04:54:38.010Z,17.36
2022-08-19T04:57:11.288Z,17.42
2022-08-19T04:59:40.146Z,17.46
2022-08-19T05:02:08.742Z,17.49
2022-08-19T05:04:36.530Z,17.52
2022-08-19T05:07:03.213Z,17.56
2022-08-19T05:09:52.533Z,17.62
2022-08-19T05:12:18.358Z,17.64
2022-08-19T05:14:46.002Z,17.70
2022-08-19T05:17:27.245Z,17.74
2022-08-19T05:20:14.045Z,17.80
2022-08-19T05:22:41.196Z,17.83
2022-08-19T05:25:13.870Z,17.88
2022-08-19T05:27:42.538Z,17.94
2022-08-19T05:30:10.796Z,17.99
2022-08-19T05:32:37.520Z,18.04
2022-08-19T05:35:05.642Z,18.11
2022-08-19T05:37:32.561Z,18.15
2022-08-19T05:39:59.151Z,18.20
2022-08-19T05:42:27.572Z,18.26
2022-08-19T05:44:54.253Z,18.32
2022-08-19T05:47:21.421Z,18.39
2022-08-19T05:49:48.787Z,18.45
2022-08-19T05:52:18.712Z,18.52
2022-08-19T05:54:51.122Z,18.56
2022-08-19T05:57:19.655Z,18.61
2022-08-19T05:59:57.859Z,18.64
2022-08-19T06:02:26.036Z,18.72
2022-08-19T06:04:52.636Z,18.77
2022-08-19T06:07:20.498Z,18.84
2022-08-19T06:10:00.091Z,18.93
2022-08-19T06:12:32.480Z,19.03
2022-08-19T06:15:01.275Z,19.08
2022-08-19T06:17:30.090Z,19.15
2022-08-19T06:19:57.343Z,19.24
2022-08-19T06:22:24.013Z,19.35
2022-08-19T06:24:53.648Z,19.47
2022-08-19T06:27:21.082Z,19.54
2022-08-19T06:29:47.898Z,19.64
2022-08-19T06:32:17.350Z,19.70
2022-08-19T06:34:43.972Z,19.75
2022-08-19T06:37:12.128Z,19.83
2022-08-19T06:39:41.176Z,19.92
2022-08-19T06:42:11.132Z,20.01
2022-08-19T06:44:42.672Z,20.15
2022-08-19T06:47:14.825Z,20.26
2022-08-19T06:49:50.378Z,20.36
2022-08-19T06:52:17.141Z,20.45
2022-08-19T06:54:55.353Z,20.54
2022-08-19T06:57:25.020Z,20.64
2022-08-19T06:59:51.860Z,20.68
2022-08-19T07:02:19.595Z,20.78
2022-08-19T07:04:46.270Z,20.89
2022-08-19T07:07:20.132Z,21.01
2022-08-19T07:09:58.029Z,21.19
2022-08-19T07:12:30.506Z,21.32
2022-08-19T07:14:58.798Z,21.43
2022-08-19T07:17:26.213Z,21.53
2022-08-19T07:19:54.551Z,21.70
2022-08-19T07:22:24.414Z,21.87
2022-08-19T07:24:52.339Z,21.94
2022-08-19T07:27:24.249Z,22.06
2022-08-19T07:29:55.828Z,22.14
2022-08-19T07:32:26.899Z,22.30
2022-08-19T07:34:53.840Z,22.40
2022-08-19T07:37:20.447Z,22.42
2022-08-19T07:39:47.009Z,22.54
2022-08-19T07:42:14.710Z,22.62
2022-08-19T07:44:42.144Z,22.67
2022-08-19T07:47:47.053Z,22.79
2022-08-19T07:49:55.684Z,22.90
2022-08-19T07:52:22.390Z,23.04
2022-08-19T08:06:09.389Z,23.78
2022-08-19T08:08:54.385Z,24.08
2022-08-19T08:11:22.089Z,24.20
2022-08-19T08:14:01.042Z,24.32
2022-08-19T08:16:32.296Z,24.44
2022-08-19T08:18:59.455Z,24.65
2022-08-19T08:21:26.191Z,24.77
2022-08-19T08:23:56.541Z,24.84
2022-08-19T08:26:24.007Z,24.86
2022-08-19T08:28:50.958Z,24.97
2022-08-19T08:31:20.098Z,25.22
2022-08-19T08:33:47.900Z,25.52
2022-08-19T08:36:14.830Z,25.61
2022-08-19T08:38:43.290Z,25.65
2022-08-19T08:41:20.691Z,25.76
2022-08-19T08:43:52.120Z,25.83
2022-08-19T08:46:39.241Z,25.93
2022-08-19T08:49:23.664Z,26.17
2022-08-19T08:52:01.915Z,26.30
2022-08-19T08:54:40.333Z,26.38
2022-08-19T08:57:16.246Z,26.49
2022-08-19T08:59:47.689Z,26.56
2022-08-19T09:02:14.241Z,26.63
2022-08-19T09:04:40.805Z,26.57
2022-08-19T09:07:34.838Z,26.63
2022-08-19T09:10:29.713Z,26.74
2022-08-19T09:13:15.459Z,26.82
2022-08-19T09:15:49.023Z,26.88
2022-08-19T09:18:19.468Z,26.96
2022-08-19T09:20:50.133Z,26.95
2022-08-19T09:23:16.934Z,27.07
2022-08-19T09:25:43.526Z,27.10
2022-08-19T09:28:22.168Z,27.25
2022-08-19T09:30:49.529Z,27.31
2022-08-19T09:33:16.608Z,27.40
2022-08-19T09:35:49.560Z,27.49
2022-08-19T09:38:20.144Z,27.55
2022-08-19T09:40:46.722Z,27.65
2022-08-19T09:43:13.637Z,27.72
2022-08-19T09:45:41.598Z,27.78
2022-08-19T09:48:09.555Z,27.92
2022-08-19T09:50:51.652Z,27.93
2022-08-19T09:53:19.967Z,27.98
2022-08-19T09:55:46.582Z,27.98
2022-08-19T09:58:13.137Z,27.99
2022-08-19T10:00:40.194Z,28.00
2022-08-19T10:03:07.125Z,28.01
2022-08-19T10:05:55.149Z,28.13
2022-08-19T10:08:28.940Z,28.28
2022-08-19T10:10:56.386Z,28.37
2022-08-19T10:13:28.520Z,28.43
2022-08-19T10:15:57.919Z,28.52
2022-08-19T10:18:26.320Z,28.61
2022-08-19T10:20:54.576Z,28.63
2022-08-19T10:23:22.572Z,28.62
2022-08-19T10:25:50.731Z,28.71
2022-08-19T10:28:19.445Z,28.82
2022-08-19T10:30:46.018Z,28.93
2022-08-19T10:33:12.964Z,29.06
2022-08-19T10:35:42.502Z,29.14
2022-08-19T10:38:09.582Z,29.22
2022-08-19T10:40:36.790Z,29.22
2022-08-19T10:43:03.310Z,29.33
2022-08-19T10:45:29.957Z,29.36
2022-08-19T10:47:56.682Z,29.35
2022-08-19T10:50:42.075Z,29.34
2022-08-19T10:53:09.741Z,29.38
2022-08-19T10:55:55.108Z,29.43
2022-08-19T10:58:26.124Z,29.53
2022-08-19T11:00:55.445Z,29.57
2022-08-19T11:03:23.159Z,29.56
2022-08-19T11:06:04.044Z,29.63
2022-08-19T11:08:32.140Z,29.68
2022-08-19T11:11:02.192Z,29.75
2022-08-19T11:13:30.096Z,29.83
2022-08-19T11:16:07.870Z,29.84
2022-08-19T11:18:40.306Z,29.88
2022-08-19T11:21:20.054Z,30.03
2022-08-19T11:23:52.691Z,30.09
2022-08-19T11:26:21.782Z,30.08
2022-08-19T11:28:49.232Z,30.06
2022-08-19T11:31:19.735Z,30.08
2022-08-19T11:33:47.865Z,30.13
2022-08-19T11:36:15.358Z,30.15
2022-08-19T11:38:42.610Z,30.16
2022-08-19T11:41:09.553Z,30.20
2022-08-19T11:43:37.730Z,30.26
2022-08-19T11:46:09.025Z,30.30
2022-08-19T11:48:36.014Z,30.37
2022-08-19T11:51:10.346Z,30.40
2022-08-19T11:53:38.009Z,30.45
2022-08-19T11:56:06.977Z,30.51
2022-08-19T11:58:33.631Z,30.54
2022-08-19T12:01:00.252Z,30.60
2022-08-19T12:03:27.423Z,30.64
2022-08-19T12:05:54.164Z,30.74
2022-08-19T12:08:20.916Z,30.77
2022-08-19T12:10:47.517Z,30.80
2022-08-19T12:13:19.312Z,30.82
2022-08-19T12:15:48.031Z,30.85
2022-08-19T12:18:14.967Z,30.87
2022-08-19T12:20:43.416Z,31.00
2022-08-19T12:23:13.225Z,31.00
2022-08-19T12:25:51.163Z,30.99
2022-08-19T12:28:19.543Z,30.94
2022-08-19T12:30:46.524Z,30.98
2022-08-19T12:33:14.544Z,31.01
2022-08-19T12:35:45.665Z,31.16
2022-08-19T12:38:12.769Z,31.15
2022-08-19T12:40:41.170Z,31.03
2022-08-19T12:43:09.296Z,31.01
2022-08-19T12:45:36.001Z,31.00
2022-08-19T12:48:31.372Z,31.14
2022-08-19T12:50:51.990Z,31.19
2022-08-19T12:53:18.718Z,31.27
2022-08-19T12:55:45.268Z,31.34
2022-08-19T12:58:13.474Z,31.35
2022-08-19T13:00:40.941Z,31.35
2022-08-19T13:03:07.721Z,31.33
2022-08-19T13:05:35.214Z,31.41
2022-08-19T13:08:01.910Z,31.47
2022-08-19T13:10:35.897Z,31.48
2022-08-19T13:13:08.324Z,31.55
2022-08-19T13:15:37.976Z,31.61
2022-08-19T13:18:04.819Z,31.70
2022-08-19T13:20:31.356Z,31.70
2022-08-19T13:22:58.337Z,31.76
2022-08-19T13:25:26.419Z,31.83
2022-08-19T13:27:53.921Z,31.89
2022-08-19T13:30:39.702Z,31.84
2022-08-19T13:33:12.701Z,31.80
2022-08-19T13:35:41.526Z,31.78
2022-08-19T13:38:11.793Z,31.76
2022-08-19T13:40:39.290Z,31.81
2022-08-19T13:43:17.873Z,31.86
2022-08-19T13:45:53.697Z,31.95
2022-08-19T13:48:20.375Z,31.98
2022-08-19T13:50:48.380Z,31.98
2022-08-19T13:53:16.080Z,31.98
2022-08-19T13:55:44.423Z,31.98
2022-08-19T13:58:11.950Z,32.03
2022-08-19T14:00:42.867Z,32.06
2022-08-19T14:03:09.933Z,32.04
2022-08-19T14:05:37.257Z,32.03
2022-08-19T14:08:04.154Z,32.07
2022-08-19T14:10:32.499Z,32.17
2022-08-19T14:13:01.161Z,32.14
2022-08-19T14:15:28.970Z,32.12
2022-08-19T14:17:55.815Z,32.13
2022-08-19T14:20:25.860Z,32.14
2022-08-19T14:22:54.186Z,32.17
2022-08-19T14:25:24.586Z,32.19
2022-08-19T14:27:51.303Z,32.12
2022-08-19T14:30:22.102Z,32.12
2022-08-19T14:32:48.763Z,32.12
2022-08-19T14:35:16.690Z,32.13
2022-08-19T14:37:46.146Z,32.13
2022-08-19T14:40:15.312Z,32.02
2022-08-19T14:42:42.906Z,32.02
2022-08-19T14:45:11.346Z,31.94
2022-08-19T14:47:39.875Z,31.87
2022-08-19T14:50:18.318Z,31.92
2022-08-19T14:52:46.152Z,31.89
2022-08-19T14:55:14.448Z,31.87
2022-08-19T14:57:45.293Z,31.87
2022-08-19T15:00:16.179Z,31.83
2022-08-19T15:02:45.259Z,31.78
2022-08-19T15:05:12.335Z,31.76
2022-08-19T15:07:39.442Z,31.76
2022-08-19T15:10:08.009Z,31.81
2022-08-19T15:12:43.367Z,31.83
2022-08-19T15:15:13.805Z,31.79
2022-08-19T15:17:54.304Z,31.76
2022-08-19T15:20:23.254Z,31.65
2022-08-19T15:22:50.317Z,31.56
2022-08-19T15:25:19.641Z,31.51
2022-08-19T15:27:46.470Z,31.50
2022-08-19T15:30:19.952Z,31.47
2022-08-19T15:32:49.032Z,31.42
2022-08-19T15:35:16.394Z,31.44
2022-08-19T15:37:43.198Z,31.46
2022-08-19T15:40:10.160Z,31.41
2022-08-19T15:42:38.650Z,31.35
2022-08-19T15:45:06.281Z,31.32
2022-08-19T15:47:35.106Z,31.30
2022-08-19T15:50:28.555Z,31.26
2022-08-19T15:52:58.871Z,31.31
2022-08-19T15:55:32.802Z,31.31
2022-08-19T15:58:28.345Z,31.26
2022-08-19T16:01:16.807Z,31.22
2022-08-19T16:04:05.909Z,31.18
2022-08-19T16:06:43.712Z,31.14
2022-08-19T16:09:10.292Z,31.08
2022-08-19T16:11:39.943Z,31.03
2022-08-19T16:14:09.513Z,31.02
2022-08-19T16:16:37.417Z,30.87
2022-08-19T16:19:10.538Z,30.77
2022-08-19T16:21:39.633Z,30.73
2022-08-19T16:24:10.561Z,30.64
2022-08-19T16:26:37.206Z,30.61
2022-08-19T16:29:08.667Z,30.59
2022-08-19T16:31:37.319Z,30.52
2022-08-19T16:34:04.508Z,30.50
2022-08-19T16:36:32.436Z,30.46
2022-08-19T16:38:58.975Z,30.34
2022-08-19T16:41:25.509Z,30.26
2022-08-19T16:43:52.604Z,30.21
2022-08-19T16:46:20.499Z,30.10
2022-08-19T16:48:50.120Z,29.99
2022-08-19T16:51:17.188Z,29.84
2022-08-19T16:53:45.091Z,29.71
2022-08-19T16:56:11.906Z,29.51
2022-08-19T16:58:38.713Z,29.37
2022-08-19T17:01:07.827Z,29.20
2022-08-19T17:03:36.385Z,28.99
2022-08-19T17:06:18.931Z,28.81
2022-08-19T17:08:49.897Z,28.65
2022-08-19T17:11:19.087Z,28.52
2022-08-19T17:13:48.076Z,28.34
2022-08-19T17:16:16.279Z,28.18
2022-08-19T17:18:42.812Z,28.01
2022-08-19T17:21:09.389Z,27.83
2022-08-19T17:23:42.497Z,27.67
2022-08-19T17:26:14.044Z,27.54
2022-08-19T17:28:50.254Z,27.43
2022-08-19T17:31:19.291Z,27.28
2022-08-19T17:33:48.394Z,27.14
2022-08-19T17:36:15.866Z,26.99
2022-08-19T17:38:42.709Z,26.88
2022-08-19T17:41:09.255Z,26.82
2022-08-19T17:43:42.824Z,26.68
2022-08-19T17:46:11.124Z,26.55
2022-08-19T17:48:38.909Z,26.43
2022-08-19T17:51:35.738Z,26.26
2022-08-19T17:54:04.342Z,26.22
2022-08-19T17:56:31.018Z,26.12
2022-08-19T17:59:00.760Z,26.01
2022-08-19T18:01:31.430Z,25.89
2022-08-19T18:04:17.422Z,25.72
2022-08-19T18:06:46.574Z,25.61
2022-08-19T18:09:23.688Z,25.54
2022-08-19T18:11:52.441Z,25.43
2022-08-19T18:14:20.178Z,25.33
2022-08-19T18:16:46.822Z,25.21
2022-08-19T18:19:13.477Z,25.14
2022-08-19T18:21:40.864Z,25.03
2022-08-19T18:24:08.003Z,24.98
2022-08-19T18:26:34.934Z,24.89
2022-08-19T18:29:02.165Z,24.77
2022-08-19T18:31:30.053Z,24.63
2022-08-19T18:33:57.020Z,24.50
2022-08-19T18:36:50.143Z,24.41
2022-08-19T18:39:29.439Z,24.30
2022-08-19T18:42:15.094Z,24.16
2022-08-19T18:45:00.467Z,24.09
2022-08-19T18:47:45.885Z,24.04
2022-08-19T18:50:13.834Z,23.94
2022-08-19T18:52:41.144Z,23.89
2022-08-19T18:55:08.357Z,23.84
2022-08-19T18:57:35.431Z,23.81
2022-08-19T19:00:04.373Z,23.75
2022-08-19T19:02:38.709Z,23.69
2022-08-19T19:05:07.655Z,23.63
2022-08-19T19:07:34.827Z,23.60
2022-08-19T19:10:01.382Z,23.58
2022-08-19T19:12:30.548Z,23.53
2022-08-19T19:14:58.688Z,23.47
2022-08-19T19:17:28.292Z,23.43
2022-08-19T19:19:54.915Z,23.41
2022-08-19T19:22:23.678Z,23.35
2022-08-19T19:24:51.837Z,23.25
2022-08-19T19:27:20.622Z,23.18
2022-08-19T19:29:51.751Z,23.04
2022-08-19T19:32:29.459Z,23.02
2022-08-19T19:34:56.621Z,22.95
2022-08-19T19:37:23.290Z,22.89
2022-08-19T19:39:49.895Z,22.82
2022-08-19T19:42:21.257Z,22.75
2022-08-19T19:44:54.853Z,22.65
2022-08-19T19:47:24.507Z,22.58
2022-08-19T19:52:40.155Z,22.49
2022-08-19T19:55:07.414Z,22.45
2022-08-19T19:57:34.151Z,22.43
2022-08-19T20:00:00.781Z,22.44
2022-08-19T20:02:27.541Z,22.43
2022-08-19T20:04:56.252Z,22.45
2022-08-19T20:07:42.779Z,22.43
2022-08-19T20:10:09.352Z,22.37
2022-08-19T20:12:35.891Z,22.31
2022-08-19T20:15:03.387Z,22.26
2022-08-19T20:17:30.102Z,22.24
2022-08-19T20:19:57.501Z,22.24
2022-08-19T20:22:25.938Z,22.24
2022-08-19T20:24:53.837Z,22.24
2022-08-19T20:27:21.601Z,22.17
2022-08-19T20:29:52.410Z,22.09
2022-08-19T20:32:18.992Z,22.03
2022-08-19T20:34:49.136Z,22.00
2022-08-19T20:37:15.913Z,21.98
2022-08-19T20:39:42.721Z,21.91
2022-08-19T20:42:09.340Z,21.89
2022-08-19T20:44:36.078Z,21.91
2022-08-19T20:47:04.004Z,21.90
2022-08-19T20:49:30.870Z,21.84
2022-08-19T20:51:58.520Z,21.80
2022-08-19T20:54:25.996Z,21.73
2022-08-19T20:56:53.184Z,21.68
2022-08-19T20:59:20.493Z,21.65
2022-08-19T21:01:48.320Z,21.61
2022-08-19T21:04:14.974Z,21.58
2022-08-19T21:06:45.244Z,21.56
2022-08-19T21:09:13.599Z,21.54
2022-08-19T21:11:40.564Z,21.49
2022-08-19T21:14:07.925Z,21.44
2022-08-19T21:16:34.560Z,21.42
2022-08-19T21:19:01.670Z,21.48
2022-08-19T21:21:28.460Z,21.51
2022-08-19T21:23:55.063Z,21.49
2022-08-19T21:26:21.705Z,21.49
2022-08-19T21:28:48.247Z,21.49
2022-08-19T21:31:17.818Z,21.43
2022-08-19T21:33:45.089Z,21.36
2022-08-19T21:36:11.698Z,21.31
2022-08-19T21:38:38.449Z,21.20
2022-08-19T21:41:06.590Z,21.14
2022-08-19T21:43:34.848Z,21.13
2022-08-19T21:46:01.881Z,21.12
2022-08-19T21:48:28.514Z,21.09
2022-08-19T21:50:55.054Z,21.06
2022-08-19T21:53:22.755Z,21.06
2022-08-19T21:55:53.186Z,21.04
2022-08-19T21:58:29.955Z,21.06
2022-08-19T22:00:58.830Z,21.05
2022-08-19T22:03:26.077Z,20.98
2022-08-19T22:05:52.847Z,20.94
2022-08-19T22:08:19.475Z,20.95
2022-08-19T22:10:46.555Z,20.97
2022-08-19T22:13:13.333Z,20.92
2022-08-19T22:15:42.303Z,20.87
2022-08-19T22:18:08.957Z,20.85
2022-08-19T22:20:35.483Z,20.85
2022-08-19T22:23:06.691Z,20.78
2022-08-19T22:25:40.485Z,20.74
2022-08-19T22:28:10.926Z,20.69
2022-08-19T22:30:41.797Z,20.65
2022-08-19T22:33:12.534Z,20.61
2022-08-19T22:35:41.050Z,20.58
2022-08-19T22:38:09.128Z,20.59
2022-08-19T22:40:39.510Z,20.57
2022-08-19T22:43:12.144Z,20.58
2022-08-19T22:45:39.060Z,20.60
2022-08-19T22:48:09.038Z,20.61
2022-08-19T22:50:37.724Z,20.53
2022-08-19T22:53:07.440Z,20.45
2022-08-19T22:55:35.795Z,20.38
2022-08-19T22:58:02.728Z,20.28
2022-08-19T23:00:30.619Z,20.25
2022-08-19T23:02:58.325Z,20.21
2022-08-19T23:05:28.227Z,20.23
2022-08-19T23:07:57.327Z,20.26
2022-08-19T23:10:27.621Z,20.20
2022-08-19T23:12:56.929Z,20.17
2022-08-19T23:15:25.674Z,20.10
2022-08-19T23:17:53.268Z,20.09
2022-08-19T23:20:20.962Z,20.07
2022-08-19T23:22:49.730Z,20.03
2022-08-19T23:25:20.100Z,20.06
2022-08-19T23:28:05.170Z,20.05
2022-08-19T23:30:36.969Z,20.01
2022-08-19T23:33:16.150Z,20.04
2022-08-19T23:35:42.717Z,20.03
2022-08-19T23:38:09.877Z,20.04
2022-08-19T23:40:38.532Z,20.00
2022-08-19T23:43:08.228Z,19.96
2022-08-19T23:45:38.790Z,19.91
2022-08-19T23:48:06.942Z,19.92
2022-08-19T23:50:35.135Z,19.91
2022-08-19T23:53:02.415Z,19.88
2022-08-19T23:55:32.690Z,19.80
2022-08-19T23:57:59.798Z,19.73
